sensor_id;sensor_type;location;lat;lon;timestamp;P1;durP1;ratioP1;P2;durP2;ratioP2
9256;SDS011;4665;51.368;6.782;2023-06-22T00:01:16;3.73;;;3.00;;
9256;SDS011;4665;51.368;6.782;2023-06-22T00:03:41;3.97;;;3.67;;
9256;SDS011;4665;51.368;6.782;2023-06-22T00:06:07;4.60;;;3.27;;
9256;SDS011;4665;51.368;6.782;2023-06-22T00:08:34;3.70;;;3.40;;
9256;SDS011;4665;51.368;6.782;2023-06-22T00:11:00;3.73;;;3.33;;
9256;SDS011;4665;51.368;6.782;2023-06-22T00:13:25;3.70;;;3.37;;
9256;SDS011;4665;51.368;6.782;2023-06-22T00:15:51;3.57;;;3.27;;
9256;SDS011;4665;51.368;6.782;2023-06-22T00:18:16;3.90;;;3.47;;
9256;SDS011;4665;51.368;6.782;2023-06-22T00:20:42;3.67;;;3.23;;
9256;SDS011;4665;51.368;6.782;2023-06-22T00:23:10;3.77;;;3.47;;
9256;SDS011;4665;51.368;6.782;2023-06-22T00:25:36;6.93;;;3.80;;
9256;SDS011;4665;51.368;6.782;2023-06-22T00:28:03;4.43;;;4.00;;
9256;SDS011;4665;51.368;6.782;2023-06-22T00:30:30;6.07;;;3.40;;
9256;SDS011;4665;51.368;6.782;2023-06-22T00:32:56;4.20;;;3.80;;
9256;SDS011;4665;51.368;6.782;2023-06-22T00:35:21;5.20;;;4.00;;
9256;SDS011;4665;51.368;6.782;2023-06-22T00:37:49;4.40;;;3.93;;
9256;SDS011;4665;51.368;6.782;2023-06-22T00:40:22;4.40;;;3.97;;
9256;SDS011;4665;51.368;6.782;2023-06-22T00:42:48;4.67;;;3.77;;
9256;SDS011;4665;51.368;6.782;2023-06-22T00:45:13;3.83;;;3.53;;
9256;SDS011;4665;51.368;6.782;2023-06-22T00:47:39;4.50;;;4.10;;
9256;SDS011;4665;51.368;6.782;2023-06-22T00:50:05;4.27;;;3.90;;
9256;SDS011;4665;51.368;6.782;2023-06-22T00:52:33;5.37;;;4.33;;
9256;SDS011;4665;51.368;6.782;2023-06-22T00:55:00;4.57;;;4.17;;
9256;SDS011;4665;51.368;6.782;2023-06-22T00:57:27;5.40;;;4.60;;
9256;SDS011;4665;51.368;6.782;2023-06-22T00:59:53;4.93;;;4.43;;
9256;SDS011;4665;51.368;6.782;2023-06-22T01:02:19;7.03;;;4.60;;
9256;SDS011;4665;51.368;6.782;2023-06-22T01:04:45;4.50;;;4.03;;
9256;SDS011;4665;51.368;6.782;2023-06-22T01:07:13;5.20;;;4.27;;
9256;SDS011;4665;51.368;6.782;2023-06-22T01:10:07;4.70;;;4.30;;
9256;SDS011;4665;51.368;6.782;2023-06-22T01:12:34;6.00;;;4.60;;
9256;SDS011;4665;51.368;6.782;2023-06-22T01:15:08;4.37;;;4.00;;
9256;SDS011;4665;51.368;6.782;2023-06-22T01:17:40;6.03;;;5.07;;
9256;SDS011;4665;51.368;6.782;2023-06-22T01:20:08;5.83;;;5.23;;
9256;SDS011;4665;51.368;6.782;2023-06-22T01:22:51;4.67;;;4.27;;
9256;SDS011;4665;51.368;6.782;2023-06-22T01:25:26;5.63;;;5.10;;
9256;SDS011;4665;51.368;6.782;2023-06-22T01:31:02;5.40;;;4.90;;
9256;SDS011;4665;51.368;6.782;2023-06-22T01:33:34;6.43;;;5.30;;
9256;SDS011;4665;51.368;6.782;2023-06-22T01:36:02;6.10;;;4.77;;
9256;SDS011;4665;51.368;6.782;2023-06-22T01:38:29;5.60;;;5.10;;
9256;SDS011;4665;51.368;6.782;2023-06-22T01:40:57;4.93;;;4.53;;
9256;SDS011;4665;51.368;6.782;2023-06-22T01:43:24;7.90;;;5.07;;
9256;SDS011;4665;51.368;6.782;2023-06-22T01:45:51;8.23;;;5.70;;
9256;SDS011;4665;51.368;6.782;2023-06-22T01:48:17;6.73;;;6.03;;
9256;SDS011;4665;51.368;6.782;2023-06-22T01:50:45;7.27;;;5.93;;
9256;SDS011;4665;51.368;6.782;2023-06-22T01:53:11;6.17;;;5.57;;
9256;SDS011;4665;51.368;6.782;2023-06-22T01:55:37;6.20;;;5.60;;
9256;SDS011;4665;51.368;6.782;2023-06-22T01:58:02;6.70;;;5.70;;
9256;SDS011;4665;51.368;6.782;2023-06-22T02:00:28;6.03;;;5.43;;
9256;SDS011;4665;51.368;6.782;2023-06-22T02:03:03;6.47;;;5.77;;
9256;SDS011;4665;51.368;6.782;2023-06-22T02:05:37;5.63;;;5.13;;
9256;SDS011;4665;51.368;6.782;2023-06-22T02:08:08;4.73;;;4.33;;
9256;SDS011;4665;51.368;6.782;2023-06-22T02:10:37;5.43;;;4.93;;
9256;SDS011;4665;51.368;6.782;2023-06-22T02:13:06;6.57;;;5.90;;
9256;SDS011;4665;51.368;6.782;2023-06-22T02:15:33;6.03;;;5.33;;
9256;SDS011;4665;51.368;6.782;2023-06-22T02:18:00;6.20;;;5.60;;
9256;SDS011;4665;51.368;6.782;2023-06-22T02:20:26;6.30;;;5.70;;
9256;SDS011;4665;51.368;6.782;2023-06-22T02:22:51;6.90;;;6.20;;
9256;SDS011;4665;51.368;6.782;2023-06-22T02:25:17;7.13;;;5.23;;
9256;SDS011;4665;51.368;6.782;2023-06-22T02:27:42;5.40;;;4.90;;
9256;SDS011;4665;51.368;6.782;2023-06-22T02:30:08;6.03;;;5.53;;
9256;SDS011;4665;51.368;6.782;2023-06-22T02:32:34;6.10;;;5.50;;
9256;SDS011;4665;51.368;6.782;2023-06-22T02:35:00;6.40;;;5.80;;
9256;SDS011;4665;51.368;6.782;2023-06-22T02:37:29;7.00;;;6.37;;
9256;SDS011;4665;51.368;6.782;2023-06-22T02:39:54;7.50;;;6.27;;
9256;SDS011;4665;51.368;6.782;2023-06-22T02:42:20;5.97;;;5.43;;
9256;SDS011;4665;51.368;6.782;2023-06-22T02:44:46;9.13;;;6.07;;
9256;SDS011;4665;51.368;6.782;2023-06-22T02:47:12;8.57;;;6.47;;
9256;SDS011;4665;51.368;6.782;2023-06-22T02:49:38;6.43;;;5.93;;
9256;SDS011;4665;51.368;6.782;2023-06-22T02:52:03;6.70;;;6.10;;
9256;SDS011;4665;51.368;6.782;2023-06-22T02:54:29;6.57;;;5.97;;
9256;SDS011;4665;51.368;6.782;2023-06-22T02:56:54;6.80;;;6.27;;
9256;SDS011;4665;51.368;6.782;2023-06-22T02:59:20;8.00;;;6.57;;
9256;SDS011;4665;51.368;6.782;2023-06-22T03:01:49;6.87;;;6.27;;
9256;SDS011;4665;51.368;6.782;2023-06-22T03:04:15;6.97;;;6.07;;
9256;SDS011;4665;51.368;6.782;2023-06-22T03:06:40;7.50;;;6.80;;
9256;SDS011;4665;51.368;6.782;2023-06-22T03:09:06;7.43;;;6.73;;
9256;SDS011;4665;51.368;6.782;2023-06-22T03:11:33;8.80;;;6.53;;
9256;SDS011;4665;51.368;6.782;2023-06-22T03:13:59;7.57;;;6.70;;
9256;SDS011;4665;51.368;6.782;2023-06-22T03:16:26;7.47;;;6.80;;
9256;SDS011;4665;51.368;6.782;2023-06-22T03:18:51;9.87;;;6.43;;
9256;SDS011;4665;51.368;6.782;2023-06-22T03:21:25;7.00;;;6.40;;
9256;SDS011;4665;51.368;6.782;2023-06-22T03:23:53;7.13;;;6.47;;
9256;SDS011;4665;51.368;6.782;2023-06-22T03:26:18;7.50;;;6.77;;
9256;SDS011;4665;51.368;6.782;2023-06-22T03:28:44;9.13;;;7.17;;
9256;SDS011;4665;51.368;6.782;2023-06-22T03:31:09;7.50;;;6.77;;
9256;SDS011;4665;51.368;6.782;2023-06-22T03:33:38;8.00;;;6.83;;
9256;SDS011;4665;51.368;6.782;2023-06-22T03:36:03;8.73;;;7.10;;
9256;SDS011;4665;51.368;6.782;2023-06-22T03:38:29;7.70;;;7.00;;
9256;SDS011;4665;51.368;6.782;2023-06-22T03:40:54;9.67;;;7.47;;
9256;SDS011;4665;51.368;6.782;2023-06-22T03:43:20;8.10;;;7.30;;
9256;SDS011;4665;51.368;6.782;2023-06-22T03:45:45;7.67;;;7.07;;
9256;SDS011;4665;51.368;6.782;2023-06-22T03:48:11;8.33;;;7.53;;
9256;SDS011;4665;51.368;6.782;2023-06-22T03:50:37;7.87;;;7.07;;
9256;SDS011;4665;51.368;6.782;2023-06-22T03:53:03;11.13;;;7.37;;
9256;SDS011;4665;51.368;6.782;2023-06-22T03:55:28;11.43;;;7.70;;
9256;SDS011;4665;51.368;6.782;2023-06-22T03:57:54;7.90;;;7.10;;
9256;SDS011;4665;51.368;6.782;2023-06-22T04:00:22;8.53;;;7.73;;
9256;SDS011;4665;51.368;6.782;2023-06-22T04:02:48;11.33;;;7.73;;
9256;SDS011;4665;51.368;6.782;2023-06-22T04:05:13;8.50;;;7.70;;
9256;SDS011;4665;51.368;6.782;2023-06-22T04:07:39;8.63;;;7.53;;
9256;SDS011;4665;51.368;6.782;2023-06-22T04:10:04;8.73;;;7.83;;
9256;SDS011;4665;51.368;6.782;2023-06-22T04:12:30;13.03;;;8.40;;
9256;SDS011;4665;51.368;6.782;2023-06-22T04:14:56;8.33;;;7.60;;
9256;SDS011;4665;51.368;6.782;2023-06-22T04:17:21;9.37;;;8.03;;
9256;SDS011;4665;51.368;6.782;2023-06-22T04:19:49;8.90;;;8.10;;
9256;SDS011;4665;51.368;6.782;2023-06-22T04:22:17;9.00;;;8.20;;
9256;SDS011;4665;51.368;6.782;2023-06-22T04:24:43;9.50;;;8.10;;
9256;SDS011;4665;51.368;6.782;2023-06-22T04:27:09;9.50;;;8.60;;
9256;SDS011;4665;51.368;6.782;2023-06-22T04:29:35;9.07;;;8.13;;
9256;SDS011;4665;51.368;6.782;2023-06-22T04:32:00;7.33;;;6.73;;
9256;SDS011;4665;51.368;6.782;2023-06-22T04:34:30;6.20;;;5.60;;
9256;SDS011;4665;51.368;6.782;2023-06-22T04:36:55;7.63;;;6.93;;
9256;SDS011;4665;51.368;6.782;2023-06-22T04:39:21;8.60;;;7.80;;
9256;SDS011;4665;51.368;6.782;2023-06-22T04:41:46;9.13;;;8.17;;
9256;SDS011;4665;51.368;6.782;2023-06-22T04:44:16;7.37;;;6.77;;
9256;SDS011;4665;51.368;6.782;2023-06-22T04:46:49;10.30;;;7.70;;
9256;SDS011;4665;51.368;6.782;2023-06-22T04:49:19;7.13;;;6.43;;
9256;SDS011;4665;51.368;6.782;2023-06-22T04:51:45;9.17;;;8.37;;
9256;SDS011;4665;51.368;6.782;2023-06-22T04:54:11;7.20;;;6.50;;
9256;SDS011;4665;51.368;6.782;2023-06-22T04:56:37;8.77;;;7.87;;
9256;SDS011;4665;51.368;6.782;2023-06-22T04:59:03;13.57;;;9.20;;
9256;SDS011;4665;51.368;6.782;2023-06-22T05:01:28;10.67;;;9.77;;
9256;SDS011;4665;51.368;6.782;2023-06-22T05:03:56;9.17;;;8.47;;
9256;SDS011;4665;51.368;6.782;2023-06-22T05:06:25;10.93;;;9.90;;
9256;SDS011;4665;51.368;6.782;2023-06-22T05:08:54;8.13;;;7.43;;
9256;SDS011;4665;51.368;6.782;2023-06-22T05:11:24;11.13;;;10.03;;
9256;SDS011;4665;51.368;6.782;2023-06-22T05:13:50;11.33;;;10.23;;
9256;SDS011;4665;51.368;6.782;2023-06-22T05:16:16;11.87;;;10.67;;
9256;SDS011;4665;51.368;6.782;2023-06-22T05:18:41;11.30;;;9.73;;
9256;SDS011;4665;51.368;6.782;2023-06-22T05:21:08;11.07;;;10.07;;
9256;SDS011;4665;51.368;6.782;2023-06-22T05:23:34;8.67;;;7.87;;
9256;SDS011;4665;51.368;6.782;2023-06-22T05:25:59;8.90;;;8.10;;
9256;SDS011;4665;51.368;6.782;2023-06-22T05:28:25;10.97;;;9.83;;
9256;SDS011;4665;51.368;6.782;2023-06-22T05:30:50;7.70;;;7.10;;
9256;SDS011;4665;51.368;6.782;2023-06-22T05:33:16;9.13;;;8.20;;
9256;SDS011;4665;51.368;6.782;2023-06-22T05:35:41;10.03;;;9.03;;
9256;SDS011;4665;51.368;6.782;2023-06-22T05:38:07;13.33;;;10.40;;
9256;SDS011;4665;51.368;6.782;2023-06-22T05:40:32;13.43;;;9.90;;
9256;SDS011;4665;51.368;6.782;2023-06-22T05:42:58;10.10;;;9.10;;
9256;SDS011;4665;51.368;6.782;2023-06-22T05:45:25;10.70;;;9.60;;
9256;SDS011;4665;51.368;6.782;2023-06-22T05:47:51;10.47;;;9.37;;
9256;SDS011;4665;51.368;6.782;2023-06-22T05:50:19;9.57;;;8.63;;
9256;SDS011;4665;51.368;6.782;2023-06-22T05:52:44;9.93;;;8.13;;
9256;SDS011;4665;51.368;6.782;2023-06-22T05:55:10;9.90;;;8.67;;
9256;SDS011;4665;51.368;6.782;2023-06-22T05:57:35;8.57;;;7.87;;
9256;SDS011;4665;51.368;6.782;2023-06-22T06:00:01;16.00;;;11.97;;
9256;SDS011;4665;51.368;6.782;2023-06-22T06:02:30;10.83;;;9.80;;
9256;SDS011;4665;51.368;6.782;2023-06-22T06:04:56;12.67;;;11.57;;
9256;SDS011;4665;51.368;6.782;2023-06-22T06:07:21;13.60;;;12.30;;
9256;SDS011;4665;51.368;6.782;2023-06-22T06:09:47;13.00;;;11.83;;
9256;SDS011;4665;51.368;6.782;2023-06-22T06:12:13;12.73;;;11.53;;
9256;SDS011;4665;51.368;6.782;2023-06-22T06:14:38;15.07;;;13.33;;
9256;SDS011;4665;51.368;6.782;2023-06-22T06:17:04;14.60;;;13.30;;
9256;SDS011;4665;51.368;6.782;2023-06-22T06:19:30;14.77;;;13.27;;
9256;SDS011;4665;51.368;6.782;2023-06-22T06:21:56;15.30;;;13.77;;
9256;SDS011;4665;51.368;6.782;2023-06-22T06:24:29;15.30;;;13.80;;
9256;SDS011;4665;51.368;6.782;2023-06-22T06:26:55;15.83;;;14.33;;
9256;SDS011;4665;51.368;6.782;2023-06-22T06:29:32;15.03;;;13.53;;
9256;SDS011;4665;51.368;6.782;2023-06-22T06:31:58;17.00;;;14.93;;
9256;SDS011;4665;51.368;6.782;2023-06-22T06:34:26;14.80;;;13.50;;
9256;SDS011;4665;51.368;6.782;2023-06-22T06:36:51;16.70;;;14.77;;
9256;SDS011;4665;51.368;6.782;2023-06-22T06:39:26;14.03;;;12.73;;
9256;SDS011;4665;51.368;6.782;2023-06-22T06:41:51;14.77;;;13.37;;
9256;SDS011;4665;51.368;6.782;2023-06-22T06:44:29;15.60;;;14.20;;
9256;SDS011;4665;51.368;6.782;2023-06-22T06:46:55;18.53;;;16.80;;
9256;SDS011;4665;51.368;6.782;2023-06-22T06:49:27;18.43;;;16.43;;
9256;SDS011;4665;51.368;6.782;2023-06-22T06:51:52;17.23;;;15.63;;
9256;SDS011;4665;51.368;6.782;2023-06-22T06:54:19;19.03;;;17.30;;
9256;SDS011;4665;51.368;6.782;2023-06-22T06:56:45;16.37;;;14.67;;
9256;SDS011;4665;51.368;6.782;2023-06-22T06:59:14;19.40;;;17.40;;
9256;SDS011;4665;51.368;6.782;2023-06-22T07:01:42;17.47;;;15.70;;
9256;SDS011;4665;51.368;6.782;2023-06-22T07:04:09;15.10;;;13.57;;
9256;SDS011;4665;51.368;6.782;2023-06-22T07:06:35;17.70;;;15.90;;
9256;SDS011;4665;51.368;6.782;2023-06-22T07:09:05;19.83;;;17.90;;
9256;SDS011;4665;51.368;6.782;2023-06-22T07:11:31;19.90;;;17.93;;
9256;SDS011;4665;51.368;6.782;2023-06-22T07:13:57;16.17;;;14.63;;
9256;SDS011;4665;51.368;6.782;2023-06-22T07:16:23;16.73;;;15.23;;
9256;SDS011;4665;51.368;6.782;2023-06-22T07:18:50;14.93;;;13.63;;
9256;SDS011;4665;51.368;6.782;2023-06-22T07:21:16;15.33;;;13.93;;
9256;SDS011;4665;51.368;6.782;2023-06-22T07:26:36;14.23;;;12.93;;
9256;SDS011;4665;51.368;6.782;2023-06-22T07:29:01;14.53;;;13.03;;
9256;SDS011;4665;51.368;6.782;2023-06-22T07:31:27;16.47;;;14.90;;
9256;SDS011;4665;51.368;6.782;2023-06-22T07:33:54;15.73;;;14.33;;
9256;SDS011;4665;51.368;6.782;2023-06-22T07:36:20;16.70;;;15.10;;
9256;SDS011;4665;51.368;6.782;2023-06-22T07:41:42;16.00;;;14.40;;
9256;SDS011;4665;51.368;6.782;2023-06-22T07:46:55;19.00;;;17.00;;
9256;SDS011;4665;51.368;6.782;2023-06-22T07:49:21;20.73;;;18.73;;
9256;SDS011;4665;51.368;6.782;2023-06-22T07:51:47;20.13;;;18.23;;
9256;SDS011;4665;51.368;6.782;2023-06-22T07:57:15;16.60;;;15.10;;
9256;SDS011;4665;51.368;6.782;2023-06-22T07:59:55;20.07;;;18.27;;
9256;SDS011;4665;51.368;6.782;2023-06-22T08:02:20;17.77;;;16.13;;
9256;SDS011;4665;51.368;6.782;2023-06-22T08:07:14;21.07;;;18.97;;
9256;SDS011;4665;51.368;6.782;2023-06-22T08:09:42;20.30;;;18.37;;
9256;SDS011;4665;51.368;6.782;2023-06-22T08:12:11;19.47;;;17.77;;
9256;SDS011;4665;51.368;6.782;2023-06-22T08:14:38;20.20;;;18.40;;
9256;SDS011;4665;51.368;6.782;2023-06-22T08:17:03;19.77;;;17.80;;
9256;SDS011;4665;51.368;6.782;2023-06-22T08:19:29;20.90;;;18.77;;
9256;SDS011;4665;51.368;6.782;2023-06-22T08:21:55;20.20;;;18.30;;
9256;SDS011;4665;51.368;6.782;2023-06-22T08:24:20;17.63;;;16.03;;
9256;SDS011;4665;51.368;6.782;2023-06-22T08:26:46;15.90;;;14.30;;
9256;SDS011;4665;51.368;6.782;2023-06-22T08:29:11;15.00;;;13.70;;
9256;SDS011;4665;51.368;6.782;2023-06-22T08:31:37;13.57;;;12.57;;
9256;SDS011;4665;51.368;6.782;2023-06-22T08:34:02;13.80;;;12.63;;
9256;SDS011;4665;51.368;6.782;2023-06-22T08:36:28;14.90;;;13.50;;
9256;SDS011;4665;51.368;6.782;2023-06-22T08:38:58;13.47;;;12.37;;
9256;SDS011;4665;51.368;6.782;2023-06-22T08:41:27;14.50;;;13.30;;
9256;SDS011;4665;51.368;6.782;2023-06-22T08:43:53;13.63;;;12.53;;
9256;SDS011;4665;51.368;6.782;2023-06-22T08:46:19;16.03;;;14.43;;
9256;SDS011;4665;51.368;6.782;2023-06-22T08:48:48;19.10;;;17.30;;
9256;SDS011;4665;51.368;6.782;2023-06-22T08:51:13;20.53;;;18.63;;
9256;SDS011;4665;51.368;6.782;2023-06-22T08:53:39;21.57;;;19.57;;
9256;SDS011;4665;51.368;6.782;2023-06-22T08:56:04;21.20;;;19.27;;
9256;SDS011;4665;51.368;6.782;2023-06-22T08:58:30;17.87;;;16.07;;
9256;SDS011;4665;51.368;6.782;2023-06-22T09:00:55;19.93;;;18.20;;
9256;SDS011;4665;51.368;6.782;2023-06-22T09:03:21;21.67;;;19.57;;
9256;SDS011;4665;51.368;6.782;2023-06-22T09:05:46;16.47;;;14.80;;
9256;SDS011;4665;51.368;6.782;2023-06-22T09:08:12;19.33;;;17.37;;
9256;SDS011;4665;51.368;6.782;2023-06-22T09:10:37;17.40;;;15.60;;
9256;SDS011;4665;51.368;6.782;2023-06-22T09:13:03;16.17;;;14.83;;
9256;SDS011;4665;51.368;6.782;2023-06-22T09:15:28;17.80;;;16.20;;
9256;SDS011;4665;51.368;6.782;2023-06-22T09:17:54;21.50;;;19.50;;
9256;SDS011;4665;51.368;6.782;2023-06-22T09:20:19;20.40;;;18.30;;
9256;SDS011;4665;51.368;6.782;2023-06-22T09:22:45;19.30;;;17.60;;
9256;SDS011;4665;51.368;6.782;2023-06-22T09:25:11;17.53;;;15.87;;
9256;SDS011;4665;51.368;6.782;2023-06-22T09:27:36;14.83;;;13.43;;
9256;SDS011;4665;51.368;6.782;2023-06-22T09:30:02;18.47;;;16.77;;
9256;SDS011;4665;51.368;6.782;2023-06-22T09:32:28;17.10;;;15.40;;
9256;SDS011;4665;51.368;6.782;2023-06-22T09:34:56;17.57;;;15.33;;
9256;SDS011;4665;51.368;6.782;2023-06-22T09:37:21;14.90;;;13.50;;
9256;SDS011;4665;51.368;6.782;2023-06-22T09:39:47;17.13;;;15.30;;
9256;SDS011;4665;51.368;6.782;2023-06-22T09:42:12;19.00;;;17.10;;
9256;SDS011;4665;51.368;6.782;2023-06-22T09:44:38;16.50;;;14.70;;
9256;SDS011;4665;51.368;6.782;2023-06-22T09:47:04;15.80;;;14.37;;
9256;SDS011;4665;51.368;6.782;2023-06-22T09:49:30;15.57;;;14.27;;
9256;SDS011;4665;51.368;6.782;2023-06-22T09:51:55;13.53;;;12.40;;
9256;SDS011;4665;51.368;6.782;2023-06-22T09:54:21;13.73;;;12.30;;
9256;SDS011;4665;51.368;6.782;2023-06-22T09:56:46;13.03;;;11.93;;
9256;SDS011;4665;51.368;6.782;2023-06-22T09:59:12;14.50;;;13.03;;
9256;SDS011;4665;51.368;6.782;2023-06-22T10:01:37;17.13;;;13.80;;
9256;SDS011;4665;51.368;6.782;2023-06-22T10:04:02;14.37;;;13.07;;
9256;SDS011;4665;51.368;6.782;2023-06-22T10:06:28;13.27;;;11.70;;
9256;SDS011;4665;51.368;6.782;2023-06-22T10:08:53;13.47;;;12.27;;
9256;SDS011;4665;51.368;6.782;2023-06-22T10:11:19;11.70;;;10.60;;
9256;SDS011;4665;51.368;6.782;2023-06-22T10:13:52;11.60;;;10.60;;
9256;SDS011;4665;51.368;6.782;2023-06-22T10:16:17;10.83;;;9.93;;
9256;SDS011;4665;51.368;6.782;2023-06-22T10:18:42;11.73;;;10.83;;
9256;SDS011;4665;51.368;6.782;2023-06-22T10:21:08;12.65;;;11.48;;
9256;SDS011;4665;51.368;6.782;2023-06-22T10:23:34;12.93;;;11.77;;
9256;SDS011;4665;51.368;6.782;2023-06-22T10:25:59;13.20;;;11.90;;
9256;SDS011;4665;51.368;6.782;2023-06-22T10:28:25;12.93;;;11.83;;
9256;SDS011;4665;51.368;6.782;2023-06-22T10:30:50;12.77;;;11.57;;
9256;SDS011;4665;51.368;6.782;2023-06-22T10:33:15;14.85;;;10.40;;
9256;SDS011;4665;51.368;6.782;2023-06-22T10:35:41;10.27;;;9.35;;
9256;SDS011;4665;51.368;6.782;2023-06-22T10:38:06;11.82;;;10.80;;
9256;SDS011;4665;51.368;6.782;2023-06-22T10:40:33;14.23;;;11.47;;
9256;SDS011;4665;51.368;6.782;2023-06-22T10:42:58;12.70;;;11.50;;
9256;SDS011;4665;51.368;6.782;2023-06-22T10:45:23;12.70;;;11.68;;
9256;SDS011;4665;51.368;6.782;2023-06-22T10:47:49;13.30;;;12.20;;
9256;SDS011;4665;51.368;6.782;2023-06-22T10:50:14;10.30;;;9.27;;
9256;SDS011;4665;51.368;6.782;2023-06-22T10:52:40;12.13;;;11.03;;
9256;SDS011;4665;51.368;6.782;2023-06-22T10:55:07;10.52;;;9.63;;
9256;SDS011;4665;51.368;6.782;2023-06-22T10:57:33;12.20;;;11.00;;
9256;SDS011;4665;51.368;6.782;2023-06-22T10:59:58;12.17;;;10.97;;
9256;SDS011;4665;51.368;6.782;2023-06-22T11:02:24;12.03;;;10.93;;
9256;SDS011;4665;51.368;6.782;2023-06-22T11:04:50;13.30;;;12.20;;
9256;SDS011;4665;51.368;6.782;2023-06-22T11:07:15;11.63;;;10.57;;
9256;SDS011;4665;51.368;6.782;2023-06-22T11:09:42;19.67;;;12.87;;
9256;SDS011;4665;51.368;6.782;2023-06-22T11:12:08;12.17;;;11.07;;
9256;SDS011;4665;51.368;6.782;2023-06-22T11:14:34;11.90;;;10.90;;
9256;SDS011;4665;51.368;6.782;2023-06-22T11:16:59;11.37;;;10.27;;
9256;SDS011;4665;51.368;6.782;2023-06-22T11:19:25;10.97;;;10.17;;
9256;SDS011;4665;51.368;6.782;2023-06-22T11:21:50;9.60;;;8.80;;
9256;SDS011;4665;51.368;6.782;2023-06-22T11:24:16;16.40;;;14.87;;
9256;SDS011;4665;51.368;6.782;2023-06-22T11:26:42;18.70;;;16.83;;
9256;SDS011;4665;51.368;6.782;2023-06-22T11:29:07;20.08;;;17.90;;
9256;SDS011;4665;51.368;6.782;2023-06-22T11:31:33;21.73;;;19.73;;
9256;SDS011;4665;51.368;6.782;2023-06-22T11:34:00;20.87;;;18.77;;
9256;SDS011;4665;51.368;6.782;2023-06-22T11:36:26;17.27;;;15.47;;
9256;SDS011;4665;51.368;6.782;2023-06-22T11:41:39;23.10;;;20.70;;
9256;SDS011;4665;51.368;6.782;2023-06-22T11:44:04;24.10;;;21.67;;
9256;SDS011;4665;51.368;6.782;2023-06-22T11:49:30;24.53;;;22.13;;
9256;SDS011;4665;51.368;6.782;2023-06-22T11:52:03;24.63;;;21.83;;
9256;SDS011;4665;51.368;6.782;2023-06-22T11:54:29;25.93;;;23.30;;
9256;SDS011;4665;51.368;6.782;2023-06-22T11:56:56;26.50;;;23.83;;
9256;SDS011;4665;51.368;6.782;2023-06-22T11:59:22;29.67;;;26.58;;
9256;SDS011;4665;51.368;6.782;2023-06-22T12:05:12;29.17;;;26.23;;
9256;SDS011;4665;51.368;6.782;2023-06-22T12:07:38;28.77;;;25.70;;
9256;SDS011;4665;51.368;6.782;2023-06-22T12:10:03;29.53;;;26.73;;
9256;SDS011;4665;51.368;6.782;2023-06-22T12:12:29;32.20;;;28.90;;
9256;SDS011;4665;51.368;6.782;2023-06-22T12:14:55;33.63;;;29.97;;
9256;SDS011;4665;51.368;6.782;2023-06-22T12:17:20;33.60;;;30.07;;
9256;SDS011;4665;51.368;6.782;2023-06-22T12:19:45;34.93;;;30.87;;
9256;SDS011;4665;51.368;6.782;2023-06-22T12:22:11;35.90;;;32.30;;
9256;SDS011;4665;51.368;6.782;2023-06-22T12:24:36;35.73;;;32.27;;
9256;SDS011;4665;51.368;6.782;2023-06-22T12:27:02;38.63;;;34.67;;
9256;SDS011;4665;51.368;6.782;2023-06-22T12:29:28;38.20;;;34.07;;
9256;SDS011;4665;51.368;6.782;2023-06-22T12:31:54;38.07;;;34.07;;
9256;SDS011;4665;51.368;6.782;2023-06-22T12:34:19;38.87;;;34.93;;
9256;SDS011;4665;51.368;6.782;2023-06-22T12:36:45;37.97;;;34.37;;
9256;SDS011;4665;51.368;6.782;2023-06-22T12:39:12;37.10;;;33.10;;
9256;SDS011;4665;51.368;6.782;2023-06-22T12:41:37;38.67;;;34.63;;
9256;SDS011;4665;51.368;6.782;2023-06-22T12:44:03;37.33;;;33.53;;
9256;SDS011;4665;51.368;6.782;2023-06-22T12:46:28;36.10;;;32.40;;
9256;SDS011;4665;51.368;6.782;2023-06-22T12:49:00;37.30;;;33.50;;
9256;SDS011;4665;51.368;6.782;2023-06-22T12:51:26;37.63;;;33.93;;
9256;SDS011;4665;51.368;6.782;2023-06-22T12:53:51;37.60;;;33.70;;
9256;SDS011;4665;51.368;6.782;2023-06-22T12:56:17;38.60;;;34.70;;
9256;SDS011;4665;51.368;6.782;2023-06-22T12:58:42;37.03;;;33.33;;
9256;SDS011;4665;51.368;6.782;2023-06-22T13:01:08;38.73;;;34.73;;
9256;SDS011;4665;51.368;6.782;2023-06-22T13:03:33;38.90;;;34.80;;
9256;SDS011;4665;51.368;6.782;2023-06-22T13:05:58;40.03;;;35.83;;
9256;SDS011;4665;51.368;6.782;2023-06-22T13:08:24;38.97;;;34.70;;
9256;SDS011;4665;51.368;6.782;2023-06-22T13:10:50;37.40;;;33.60;;
9256;SDS011;4665;51.368;6.782;2023-06-22T13:13:15;38.57;;;34.70;;
9256;SDS011;4665;51.368;6.782;2023-06-22T13:15:41;37.87;;;34.03;;
9256;SDS011;4665;51.368;6.782;2023-06-22T13:18:06;39.70;;;35.70;;
9256;SDS011;4665;51.368;6.782;2023-06-22T13:20:32;39.33;;;35.27;;
9256;SDS011;4665;51.368;6.782;2023-06-22T13:22:57;38.80;;;34.90;;
9256;SDS011;4665;51.368;6.782;2023-06-22T13:25:22;36.63;;;32.83;;
9256;SDS011;4665;51.368;6.782;2023-06-22T13:27:51;40.33;;;36.27;;
9256;SDS011;4665;51.368;6.782;2023-06-22T13:30:17;41.87;;;37.27;;
9256;SDS011;4665;51.368;6.782;2023-06-22T13:32:42;42.57;;;38.17;;
9256;SDS011;4665;51.368;6.782;2023-06-22T13:35:08;40.27;;;36.17;;
9256;SDS011;4665;51.368;6.782;2023-06-22T13:37:34;40.23;;;36.10;;
9256;SDS011;4665;51.368;6.782;2023-06-22T13:40:03;42.93;;;38.43;;
9256;SDS011;4665;51.368;6.782;2023-06-22T13:42:31;40.67;;;36.43;;
9256;SDS011;4665;51.368;6.782;2023-06-22T13:44:57;43.20;;;38.50;;
9256;SDS011;4665;51.368;6.782;2023-06-22T13:47:22;43.03;;;38.47;;
9256;SDS011;4665;51.368;6.782;2023-06-22T13:49:48;44.30;;;39.67;;
9256;SDS011;4665;51.368;6.782;2023-06-22T13:52:14;44.27;;;39.57;;
9256;SDS011;4665;51.368;6.782;2023-06-22T13:54:39;43.63;;;39.20;;
9256;SDS011;4665;51.368;6.782;2023-06-22T13:57:05;44.30;;;39.77;;
9256;SDS011;4665;51.368;6.782;2023-06-22T13:59:31;44.53;;;39.03;;
9256;SDS011;4665;51.368;6.782;2023-06-22T14:01:56;43.63;;;39.20;;
9256;SDS011;4665;51.368;6.782;2023-06-22T14:04:25;43.23;;;38.73;;
9256;SDS011;4665;51.368;6.782;2023-06-22T14:06:50;40.40;;;36.40;;
9256;SDS011;4665;51.368;6.782;2023-06-22T14:09:16;38.40;;;34.43;;
9256;SDS011;4665;51.368;6.782;2023-06-22T14:11:42;38.73;;;34.93;;
9256;SDS011;4665;51.368;6.782;2023-06-22T14:14:07;38.23;;;34.53;;
9256;SDS011;4665;51.368;6.782;2023-06-22T14:16:32;38.47;;;34.70;;
9256;SDS011;4665;51.368;6.782;2023-06-22T14:18:58;38.93;;;34.93;;
9256;SDS011;4665;51.368;6.782;2023-06-22T14:21:24;38.17;;;34.03;;
9256;SDS011;4665;51.368;6.782;2023-06-22T14:23:50;38.20;;;34.17;;
9256;SDS011;4665;51.368;6.782;2023-06-22T14:26:16;36.07;;;32.57;;
9256;SDS011;4665;51.368;6.782;2023-06-22T14:28:47;36.43;;;32.87;;
9256;SDS011;4665;51.368;6.782;2023-06-22T14:31:15;35.97;;;32.37;;
9256;SDS011;4665;51.368;6.782;2023-06-22T14:33:44;35.33;;;31.90;;
9256;SDS011;4665;51.368;6.782;2023-06-22T14:36:11;34.33;;;31.03;;
9256;SDS011;4665;51.368;6.782;2023-06-22T14:38:36;35.27;;;31.87;;
9256;SDS011;4665;51.368;6.782;2023-06-22T14:41:02;35.13;;;31.43;;
9256;SDS011;4665;51.368;6.782;2023-06-22T14:43:27;35.77;;;32.17;;
9256;SDS011;4665;51.368;6.782;2023-06-22T14:45:55;35.17;;;31.80;;
9256;SDS011;4665;51.368;6.782;2023-06-22T14:48:21;35.90;;;32.60;;
9256;SDS011;4665;51.368;6.782;2023-06-22T14:50:46;34.77;;;31.37;;
9256;SDS011;4665;51.368;6.782;2023-06-22T14:53:11;35.47;;;32.13;;
9256;SDS011;4665;51.368;6.782;2023-06-22T14:55:37;33.23;;;30.13;;
9256;SDS011;4665;51.368;6.782;2023-06-22T14:58:03;33.70;;;30.33;;
9256;SDS011;4665;51.368;6.782;2023-06-22T15:00:28;35.27;;;31.67;;
9256;SDS011;4665;51.368;6.782;2023-06-22T15:02:53;33.80;;;30.73;;
9256;SDS011;4665;51.368;6.782;2023-06-22T15:05:19;33.17;;;30.03;;
9256;SDS011;4665;51.368;6.782;2023-06-22T15:07:44;33.13;;;29.90;;
9256;SDS011;4665;51.368;6.782;2023-06-22T15:10:10;33.17;;;30.07;;
9256;SDS011;4665;51.368;6.782;2023-06-22T15:12:38;32.17;;;29.17;;
9256;SDS011;4665;51.368;6.782;2023-06-22T15:15:03;31.77;;;28.70;;
9256;SDS011;4665;51.368;6.782;2023-06-22T15:17:30;31.00;;;28.07;;
9256;SDS011;4665;51.368;6.782;2023-06-22T15:19:57;31.40;;;28.50;;